Impacts TAF Board
For situational awareness. Not to be used for flight planning purposes.
IDs:

KIAH - Houston/Bush Intl, TX, US

Issued at 0303 UTC 10 Dec 2018
Updated at 0450 UTC 10 Dec 2018
Potential Impact None Slight Moderate High
Time<<10/17Z 10/18Z 10/19Z 10/20Z 10/21Z 10/22Z 10/23Z 11/00Z 11/01Z 11/02Z 11/03Z 11/04Z 11/05Z>>
Type PRVL PRVL PRVL PRVL PRVL PRVL PRVL PRVL PRVL PRVL PRVL PRVL PRVL
VIS >6 >6 >6 >6 >6 >6 >6 >6 >6 >6 >6 >6 >6
CIG -- -- -- -- -- -- -- -- -- -- -- -- --
Cover SKC SKC SKC SKC SKC SKC SKC SKC SKC SKC SKC SKC SKC
FltCat VFR VFR VFR VFR VFR VFR VFR VFR VFR VFR VFR VFR VFR
WX -- -- -- -- -- -- -- -- -- -- -- -- --
WDir 330 330 330 330 330 330 330 330 330 330 330 330 330
WSpd 5 5 5 5 5 5 5 5 5 5 5 5 5
WGst -- -- -- -- -- -- -- -- -- -- -- -- --
Raw TAF
KIAH 100303Z 1003/1106 32006KT P6SM OVC028
  FM100400 33006KT P6SM BKN040
  FM100500 33005KT P6SM SKC


METAR Board
Radar Display
Forecast Discussion
For situational awareness. Not to be used for flight planning purposes.